sensor_id;sensor_type;location;lat;lon;timestamp;temperature;humidity
31133;DHT22;17779;50.942;4.026;2023-04-24T00:00:10;10.40;99.90
31133;DHT22;17779;50.942;4.026;2023-04-24T00:02:36;10.60;99.90
31133;DHT22;17779;50.942;4.026;2023-04-24T00:05:06;10.50;99.90
31133;DHT22;17779;50.942;4.026;2023-04-24T00:07:32;10.40;99.90
31133;DHT22;17779;50.942;4.026;2023-04-24T00:09:58;10.40;99.90
31133;DHT22;17779;50.942;4.026;2023-04-24T00:12:24;10.40;99.90
31133;DHT22;17779;50.942;4.026;2023-04-24T00:14:50;10.50;99.90
31133;DHT22;17779;50.942;4.026;2023-04-24T00:17:16;10.40;99.90
31133;DHT22;17779;50.942;4.026;2023-04-24T00:19:46;10.40;99.90
31133;DHT22;17779;50.942;4.026;2023-04-24T00:22:11;10.50;99.90
31133;DHT22;17779;50.942;4.026;2023-04-24T00:24:39;10.50;99.90
31133;DHT22;17779;50.942;4.026;2023-04-24T00:27:04;10.40;99.90
31133;DHT22;17779;50.942;4.026;2023-04-24T00:29:30;10.40;99.90
31133;DHT22;17779;50.942;4.026;2023-04-24T00:31:56;10.40;99.90
31133;DHT22;17779;50.942;4.026;2023-04-24T00:34:22;10.30;99.90
31133;DHT22;17779;50.942;4.026;2023-04-24T00:36:48;10.30;99.90
31133;DHT22;17779;50.942;4.026;2023-04-24T00:39:18;10.40;99.90
31133;DHT22;17779;50.942;4.026;2023-04-24T00:41:44;10.30;99.90
31133;DHT22;17779;50.942;4.026;2023-04-24T00:44:11;10.20;99.90
31133;DHT22;17779;50.942;4.026;2023-04-24T00:46:37;10.00;99.90
31133;DHT22;17779;50.942;4.026;2023-04-24T00:49:04;10.10;99.90
31133;DHT22;17779;50.942;4.026;2023-04-24T00:51:31;10.10;99.90
31133;DHT22;17779;50.942;4.026;2023-04-24T00:53:58;10.00;99.90
31133;DHT22;17779;50.942;4.026;2023-04-24T00:56:24;10.00;99.90
31133;DHT22;17779;50.942;4.026;2023-04-24T00:58:50;10.00;99.90
31133;DHT22;17779;50.942;4.026;2023-04-24T01:01:16;10.00;99.90
31133;DHT22;17779;50.942;4.026;2023-04-24T01:03:43;10.10;99.90
31133;DHT22;17779;50.942;4.026;2023-04-24T01:06:09;10.00;99.90
31133;DHT22;17779;50.942;4.026;2023-04-24T01:08:36;10.00;99.90
31133;DHT22;17779;50.942;4.026;2023-04-24T01:11:03;10.00;99.90
31133;DHT22;17779;50.942;4.026;2023-04-24T01:13:31;10.10;99.90
31133;DHT22;17779;50.942;4.026;2023-04-24T01:15:57;10.10;99.90
31133;DHT22;17779;50.942;4.026;2023-04-24T01:18:23;10.10;99.90
31133;DHT22;17779;50.942;4.026;2023-04-24T01:20:51;10.10;99.90
31133;DHT22;17779;50.942;4.026;2023-04-24T01:23:18;9.90;99.90
31133;DHT22;17779;50.942;4.026;2023-04-24T01:25:44;9.90;99.90
31133;DHT22;17779;50.942;4.026;2023-04-24T01:28:10;9.90;99.90
31133;DHT22;17779;50.942;4.026;2023-04-24T01:30:36;9.90;99.90
31133;DHT22;17779;50.942;4.026;2023-04-24T01:33:02;9.80;99.90
31133;DHT22;17779;50.942;4.026;2023-04-24T01:35:27;9.60;99.90
31133;DHT22;17779;50.942;4.026;2023-04-24T01:37:53;9.50;99.90
31133;DHT22;17779;50.942;4.026;2023-04-24T01:40:19;9.50;99.90
31133;DHT22;17779;50.942;4.026;2023-04-24T01:42:45;9.50;99.90
31133;DHT22;17779;50.942;4.026;2023-04-24T01:45:11;9.50;99.90
31133;DHT22;17779;50.942;4.026;2023-04-24T01:47:38;9.50;99.90
31133;DHT22;17779;50.942;4.026;2023-04-24T01:50:10;9.50;99.90
31133;DHT22;17779;50.942;4.026;2023-04-24T01:52:35;9.50;99.90
31133;DHT22;17779;50.942;4.026;2023-04-24T01:55:02;9.50;99.90
31133;DHT22;17779;50.942;4.026;2023-04-24T01:57:30;9.50;99.90
31133;DHT22;17779;50.942;4.026;2023-04-24T01:59:56;9.50;99.90
31133;DHT22;17779;50.942;4.026;2023-04-24T02:02:22;9.50;99.90
31133;DHT22;17779;50.942;4.026;2023-04-24T02:04:50;9.50;99.90
31133;DHT22;17779;50.942;4.026;2023-04-24T02:07:15;9.50;99.90
31133;DHT22;17779;50.942;4.026;2023-04-24T02:09:41;9.50;99.90
31133;DHT22;17779;50.942;4.026;2023-04-24T02:12:07;9.50;99.90
31133;DHT22;17779;50.942;4.026;2023-04-24T02:14:33;9.50;99.90
31133;DHT22;17779;50.942;4.026;2023-04-24T02:16:59;9.50;99.90
31133;DHT22;17779;50.942;4.026;2023-04-24T02:19:26;9.50;99.90
31133;DHT22;17779;50.942;4.026;2023-04-24T02:21:52;9.50;99.90
31133;DHT22;17779;50.942;4.026;2023-04-24T02:24:18;9.50;99.90
31133;DHT22;17779;50.942;4.026;2023-04-24T02:26:43;9.60;99.90
31133;DHT22;17779;50.942;4.026;2023-04-24T02:29:09;9.60;99.90
31133;DHT22;17779;50.942;4.026;2023-04-24T02:31:35;9.50;99.90
31133;DHT22;17779;50.942;4.026;2023-04-24T02:34:01;9.40;99.90
31133;DHT22;17779;50.942;4.026;2023-04-24T02:36:27;9.50;99.90
31133;DHT22;17779;50.942;4.026;2023-04-24T02:38:53;9.50;99.90
31133;DHT22;17779;50.942;4.026;2023-04-24T02:41:18;9.40;99.90
31133;DHT22;17779;50.942;4.026;2023-04-24T02:43:45;9.50;99.90
31133;DHT22;17779;50.942;4.026;2023-04-24T02:46:10;9.40;99.90
31133;DHT22;17779;50.942;4.026;2023-04-24T02:48:36;9.40;99.90
31133;DHT22;17779;50.942;4.026;2023-04-24T02:51:02;9.40;99.90
31133;DHT22;17779;50.942;4.026;2023-04-24T02:53:28;9.50;99.90
31133;DHT22;17779;50.942;4.026;2023-04-24T02:55:56;9.40;99.90
31133;DHT22;17779;50.942;4.026;2023-04-24T02:58:22;9.50;99.90
31133;DHT22;17779;50.942;4.026;2023-04-24T03:00:48;9.50;99.90
31133;DHT22;17779;50.942;4.026;2023-04-24T03:03:14;9.50;99.90
31133;DHT22;17779;50.942;4.026;2023-04-24T03:05:40;9.60;99.90
31133;DHT22;17779;50.942;4.026;2023-04-24T03:08:06;9.50;99.90
31133;DHT22;17779;50.942;4.026;2023-04-24T03:10:32;9.70;99.90
31133;DHT22;17779;50.942;4.026;2023-04-24T03:12:58;9.60;99.90
31133;DHT22;17779;50.942;4.026;2023-04-24T03:15:23;9.60;99.90
31133;DHT22;17779;50.942;4.026;2023-04-24T03:17:49;9.50;99.90
31133;DHT22;17779;50.942;4.026;2023-04-24T03:20:15;9.60;99.90
31133;DHT22;17779;50.942;4.026;2023-04-24T03:22:41;9.60;99.90
31133;DHT22;17779;50.942;4.026;2023-04-24T03:25:07;9.70;99.90
31133;DHT22;17779;50.942;4.026;2023-04-24T03:27:36;9.70;99.90
31133;DHT22;17779;50.942;4.026;2023-04-24T03:30:03;9.60;99.90
31133;DHT22;17779;50.942;4.026;2023-04-24T03:32:29;9.60;99.90
31133;DHT22;17779;50.942;4.026;2023-04-24T03:34:55;9.70;99.90
31133;DHT22;17779;50.942;4.026;2023-04-24T03:37:21;9.60;99.90
31133;DHT22;17779;50.942;4.026;2023-04-24T03:39:46;9.60;99.90
31133;DHT22;17779;50.942;4.026;2023-04-24T03:42:12;9.50;99.90
31133;DHT22;17779;50.942;4.026;2023-04-24T03:44:38;9.50;99.90
31133;DHT22;17779;50.942;4.026;2023-04-24T03:47:03;9.60;99.90
31133;DHT22;17779;50.942;4.026;2023-04-24T03:49:29;9.70;99.90
31133;DHT22;17779;50.942;4.026;2023-04-24T03:51:55;9.70;99.90
31133;DHT22;17779;50.942;4.026;2023-04-24T03:54:21;9.60;99.90
31133;DHT22;17779;50.942;4.026;2023-04-24T03:56:47;9.50;99.90
31133;DHT22;17779;50.942;4.026;2023-04-24T03:59:12;9.50;99.90
31133;DHT22;17779;50.942;4.026;2023-04-24T04:01:38;9.40;99.90
31133;DHT22;17779;50.942;4.026;2023-04-24T04:04:05;9.40;99.90
31133;DHT22;17779;50.942;4.026;2023-04-24T04:06:31;9.50;99.90
31133;DHT22;17779;50.942;4.026;2023-04-24T04:08:58;9.50;99.90
31133;DHT22;17779;50.942;4.026;2023-04-24T04:11:24;9.40;99.90
31133;DHT22;17779;50.942;4.026;2023-04-24T04:13:50;9.40;99.90
31133;DHT22;17779;50.942;4.026;2023-04-24T04:16:16;9.40;99.90
31133;DHT22;17779;50.942;4.026;2023-04-24T04:18:44;9.30;99.90
31133;DHT22;17779;50.942;4.026;2023-04-24T04:21:11;9.20;99.90
31133;DHT22;17779;50.942;4.026;2023-04-24T04:23:37;9.20;99.90
31133;DHT22;17779;50.942;4.026;2023-04-24T04:26:03;9.20;99.90
31133;DHT22;17779;50.942;4.026;2023-04-24T04:28:30;9.00;99.90
31133;DHT22;17779;50.942;4.026;2023-04-24T04:30:57;9.10;99.90
31133;DHT22;17779;50.942;4.026;2023-04-24T04:33:24;9.10;99.90
31133;DHT22;17779;50.942;4.026;2023-04-24T04:35:50;9.10;99.90
31133;DHT22;17779;50.942;4.026;2023-04-24T04:38:22;9.10;99.90
31133;DHT22;17779;50.942;4.026;2023-04-24T04:40:48;9.10;99.90
31133;DHT22;17779;50.942;4.026;2023-04-24T04:43:14;9.10;99.90
31133;DHT22;17779;50.942;4.026;2023-04-24T04:45:40;9.20;99.90
31133;DHT22;17779;50.942;4.026;2023-04-24T04:48:08;9.20;99.90
31133;DHT22;17779;50.942;4.026;2023-04-24T04:50:35;9.20;99.90
31133;DHT22;17779;50.942;4.026;2023-04-24T04:53:01;9.20;99.90
31133;DHT22;17779;50.942;4.026;2023-04-24T04:55:27;9.20;99.90
31133;DHT22;17779;50.942;4.026;2023-04-24T04:57:53;9.10;99.90
31133;DHT22;17779;50.942;4.026;2023-04-24T05:00:20;9.20;99.90
31133;DHT22;17779;50.942;4.026;2023-04-24T05:02:46;9.00;99.90
31133;DHT22;17779;50.942;4.026;2023-04-24T05:05:12;9.10;99.90
31133;DHT22;17779;50.942;4.026;2023-04-24T05:07:38;9.20;99.90
31133;DHT22;17779;50.942;4.026;2023-04-24T05:10:04;9.10;99.90
31133;DHT22;17779;50.942;4.026;2023-04-24T05:12:30;9.10;99.90
31133;DHT22;17779;50.942;4.026;2023-04-24T05:14:56;9.20;99.90
31133;DHT22;17779;50.942;4.026;2023-04-24T05:17:21;9.20;99.90
31133;DHT22;17779;50.942;4.026;2023-04-24T05:19:47;9.20;99.90
31133;DHT22;17779;50.942;4.026;2023-04-24T05:22:13;9.30;99.90
31133;DHT22;17779;50.942;4.026;2023-04-24T05:24:39;9.40;99.90
31133;DHT22;17779;50.942;4.026;2023-04-24T05:27:06;9.30;99.90
31133;DHT22;17779;50.942;4.026;2023-04-24T05:29:31;9.30;99.90
31133;DHT22;17779;50.942;4.026;2023-04-24T05:31:59;9.40;99.90
31133;DHT22;17779;50.942;4.026;2023-04-24T05:34:27;9.30;99.90
31133;DHT22;17779;50.942;4.026;2023-04-24T05:36:53;9.20;99.90
31133;DHT22;17779;50.942;4.026;2023-04-24T05:39:18;9.20;99.90
31133;DHT22;17779;50.942;4.026;2023-04-24T05:41:46;9.30;99.90
31133;DHT22;17779;50.942;4.026;2023-04-24T05:44:11;9.20;99.90
31133;DHT22;17779;50.942;4.026;2023-04-24T05:46:37;9.10;99.90
31133;DHT22;17779;50.942;4.026;2023-04-24T05:49:03;9.10;99.90
31133;DHT22;17779;50.942;4.026;2023-04-24T05:51:29;9.20;99.90
31133;DHT22;17779;50.942;4.026;2023-04-24T05:53:54;9.20;99.90
31133;DHT22;17779;50.942;4.026;2023-04-24T05:56:20;9.10;99.90
31133;DHT22;17779;50.942;4.026;2023-04-24T05:58:46;9.10;99.90
31133;DHT22;17779;50.942;4.026;2023-04-24T06:01:13;9.10;99.90
31133;DHT22;17779;50.942;4.026;2023-04-24T06:03:40;9.20;99.90
31133;DHT22;17779;50.942;4.026;2023-04-24T06:06:07;9.20;99.90
31133;DHT22;17779;50.942;4.026;2023-04-24T06:08:33;9.20;99.90
31133;DHT22;17779;50.942;4.026;2023-04-24T06:10:59;9.20;99.90
31133;DHT22;17779;50.942;4.026;2023-04-24T06:13:25;9.20;99.90
31133;DHT22;17779;50.942;4.026;2023-04-24T06:15:52;9.30;99.90
31133;DHT22;17779;50.942;4.026;2023-04-24T06:18:18;9.30;99.90
31133;DHT22;17779;50.942;4.026;2023-04-24T06:20:45;9.40;99.90
31133;DHT22;17779;50.942;4.026;2023-04-24T06:23:11;9.50;99.90
31133;DHT22;17779;50.942;4.026;2023-04-24T06:25:37;9.50;99.90
31133;DHT22;17779;50.942;4.026;2023-04-24T06:28:04;9.60;99.90
31133;DHT22;17779;50.942;4.026;2023-04-24T06:30:30;9.60;99.90
31133;DHT22;17779;50.942;4.026;2023-04-24T06:32:56;9.70;99.90
31133;DHT22;17779;50.942;4.026;2023-04-24T06:35:22;9.70;99.90
31133;DHT22;17779;50.942;4.026;2023-04-24T06:37:48;9.80;99.90
31133;DHT22;17779;50.942;4.026;2023-04-24T06:40:14;9.80;99.90
31133;DHT22;17779;50.942;4.026;2023-04-24T06:42:40;9.90;99.90
31133;DHT22;17779;50.942;4.026;2023-04-24T06:45:06;10.00;99.90
31133;DHT22;17779;50.942;4.026;2023-04-24T06:47:32;9.90;99.90
31133;DHT22;17779;50.942;4.026;2023-04-24T06:49:58;9.90;99.90
31133;DHT22;17779;50.942;4.026;2023-04-24T06:52:24;9.90;99.90
31133;DHT22;17779;50.942;4.026;2023-04-24T06:54:50;10.20;99.90
31133;DHT22;17779;50.942;4.026;2023-04-24T06:57:17;10.30;99.90
31133;DHT22;17779;50.942;4.026;2023-04-24T06:59:44;10.20;99.90
31133;DHT22;17779;50.942;4.026;2023-04-24T07:02:10;10.40;99.90
31133;DHT22;17779;50.942;4.026;2023-04-24T07:04:35;10.40;99.90
31133;DHT22;17779;50.942;4.026;2023-04-24T07:07:02;10.30;99.90
31133;DHT22;17779;50.942;4.026;2023-04-24T07:09:27;10.30;99.90
31133;DHT22;17779;50.942;4.026;2023-04-24T07:11:53;10.20;99.90
31133;DHT22;17779;50.942;4.026;2023-04-24T07:14:20;10.10;99.90
31133;DHT22;17779;50.942;4.026;2023-04-24T07:16:46;10.10;99.90
31133;DHT22;17779;50.942;4.026;2023-04-24T07:19:12;9.90;99.90
31133;DHT22;17779;50.942;4.026;2023-04-24T07:21:38;9.90;99.90
31133;DHT22;17779;50.942;4.026;2023-04-24T07:24:04;9.90;99.90
31133;DHT22;17779;50.942;4.026;2023-04-24T07:26:30;10.10;99.90
31133;DHT22;17779;50.942;4.026;2023-04-24T07:28:56;10.20;99.90
31133;DHT22;17779;50.942;4.026;2023-04-24T07:31:22;10.50;99.90
31133;DHT22;17779;50.942;4.026;2023-04-24T07:33:48;10.70;99.90
31133;DHT22;17779;50.942;4.026;2023-04-24T07:36:14;11.40;99.90
31133;DHT22;17779;50.942;4.026;2023-04-24T07:38:45;11.70;99.90
31133;DHT22;17779;50.942;4.026;2023-04-24T07:41:11;11.60;99.90
31133;DHT22;17779;50.942;4.026;2023-04-24T07:43:37;11.40;99.90
31133;DHT22;17779;50.942;4.026;2023-04-24T07:46:03;11.20;99.90
31133;DHT22;17779;50.942;4.026;2023-04-24T07:48:29;10.80;99.90
31133;DHT22;17779;50.942;4.026;2023-04-24T07:50:54;10.60;99.90
31133;DHT22;17779;50.942;4.026;2023-04-24T07:53:21;10.70;99.90
31133;DHT22;17779;50.942;4.026;2023-04-24T07:55:47;11.30;99.90
31133;DHT22;17779;50.942;4.026;2023-04-24T07:58:13;12.40;99.90
31133;DHT22;17779;50.942;4.026;2023-04-24T08:00:39;12.60;99.90
31133;DHT22;17779;50.942;4.026;2023-04-24T08:03:05;12.30;99.90
31133;DHT22;17779;50.942;4.026;2023-04-24T08:05:31;12.10;99.90
31133;DHT22;17779;50.942;4.026;2023-04-24T08:07:56;11.80;99.90
31133;DHT22;17779;50.942;4.026;2023-04-24T08:10:23;11.70;99.90
31133;DHT22;17779;50.942;4.026;2023-04-24T08:12:49;11.70;99.90
31133;DHT22;17779;50.942;4.026;2023-04-24T08:15:15;11.50;99.90
31133;DHT22;17779;50.942;4.026;2023-04-24T08:17:41;11.50;99.90
31133;DHT22;17779;50.942;4.026;2023-04-24T08:20:08;11.80;99.90
31133;DHT22;17779;50.942;4.026;2023-04-24T08:22:40;13.80;99.90
31133;DHT22;17779;50.942;4.026;2023-04-24T08:25:07;16.10;99.90
31133;DHT22;17779;50.942;4.026;2023-04-24T08:27:34;16.80;99.90
31133;DHT22;17779;50.942;4.026;2023-04-24T08:30:01;18.60;99.90
31133;DHT22;17779;50.942;4.026;2023-04-24T08:32:26;19.70;99.90
31133;DHT22;17779;50.942;4.026;2023-04-24T08:34:55;19.20;99.90
31133;DHT22;17779;50.942;4.026;2023-04-24T08:37:22;19.80;99.90
31133;DHT22;17779;50.942;4.026;2023-04-24T08:39:49;20.20;99.90
31133;DHT22;17779;50.942;4.026;2023-04-24T08:42:17;18.70;99.90
31133;DHT22;17779;50.942;4.026;2023-04-24T08:44:43;16.80;99.90
31133;DHT22;17779;50.942;4.026;2023-04-24T08:47:10;15.60;99.90
31133;DHT22;17779;50.942;4.026;2023-04-24T08:49:37;14.90;99.90
31133;DHT22;17779;50.942;4.026;2023-04-24T08:52:04;15.90;99.90
31133;DHT22;17779;50.942;4.026;2023-04-24T08:54:31;17.40;99.90
31133;DHT22;17779;50.942;4.026;2023-04-24T08:57:00;18.80;99.90
31133;DHT22;17779;50.942;4.026;2023-04-24T08:59:32;18.60;99.90
31133;DHT22;17779;50.942;4.026;2023-04-24T09:02:00;16.10;99.90
31133;DHT22;17779;50.942;4.026;2023-04-24T09:04:27;14.80;99.90
31133;DHT22;17779;50.942;4.026;2023-04-24T09:06:56;14.60;99.90
31133;DHT22;17779;50.942;4.026;2023-04-24T09:09:25;13.80;99.90
31133;DHT22;17779;50.942;4.026;2023-04-24T09:11:52;13.50;99.90
31133;DHT22;17779;50.942;4.026;2023-04-24T09:14:21;16.00;99.90
31133;DHT22;17779;50.942;4.026;2023-04-24T09:16:50;16.80;99.90
31133;DHT22;17779;50.942;4.026;2023-04-24T09:19:16;15.60;99.90
31133;DHT22;17779;50.942;4.026;2023-04-24T09:21:45;15.00;99.90
31133;DHT22;17779;50.942;4.026;2023-04-24T09:24:17;14.80;99.90
31133;DHT22;17779;50.942;4.026;2023-04-24T09:26:43;15.40;99.90
31133;DHT22;17779;50.942;4.026;2023-04-24T09:29:13;15.80;99.90
31133;DHT22;17779;50.942;4.026;2023-04-24T09:31:39;16.20;99.90
31133;DHT22;17779;50.942;4.026;2023-04-24T09:34:05;16.10;99.90
31133;DHT22;17779;50.942;4.026;2023-04-24T09:36:33;16.10;99.90
31133;DHT22;17779;50.942;4.026;2023-04-24T09:39:00;15.50;99.90
31133;DHT22;17779;50.942;4.026;2023-04-24T09:41:28;15.30;99.90
31133;DHT22;17779;50.942;4.026;2023-04-24T09:43:57;14.50;99.90
31133;DHT22;17779;50.942;4.026;2023-04-24T09:46:30;14.50;99.90
31133;DHT22;17779;50.942;4.026;2023-04-24T09:48:57;14.50;99.90
31133;DHT22;17779;50.942;4.026;2023-04-24T09:51:36;14.10;99.90
31133;DHT22;17779;50.942;4.026;2023-04-24T09:54:13;14.50;99.90
31133;DHT22;17779;50.942;4.026;2023-04-24T09:56:43;15.60;99.90
31133;DHT22;17779;50.942;4.026;2023-04-24T09:59:10;17.50;99.90
31133;DHT22;17779;50.942;4.026;2023-04-24T10:01:36;18.40;99.90
31133;DHT22;17779;50.942;4.026;2023-04-24T10:04:03;19.70;99.90
31133;DHT22;17779;50.942;4.026;2023-04-24T10:06:36;21.40;99.90
31133;DHT22;17779;50.942;4.026;2023-04-24T10:09:02;20.20;99.90
31133;DHT22;17779;50.942;4.026;2023-04-24T10:11:30;18.00;99.90
31133;DHT22;17779;50.942;4.026;2023-04-24T10:13:56;17.10;99.90
31133;DHT22;17779;50.942;4.026;2023-04-24T10:16:23;17.20;99.90
31133;DHT22;17779;50.942;4.026;2023-04-24T10:18:49;16.90;99.90
31133;DHT22;17779;50.942;4.026;2023-04-24T10:21:19;16.50;99.90
31133;DHT22;17779;50.942;4.026;2023-04-24T10:23:45;15.90;99.90
31133;DHT22;17779;50.942;4.026;2023-04-24T10:26:16;15.00;99.90
31133;DHT22;17779;50.942;4.026;2023-04-24T10:28:47;14.50;99.90
31133;DHT22;17779;50.942;4.026;2023-04-24T10:31:14;14.30;99.90
31133;DHT22;17779;50.942;4.026;2023-04-24T10:33:43;14.00;99.90
31133;DHT22;17779;50.942;4.026;2023-04-24T10:36:13;14.70;99.90
31133;DHT22;17779;50.942;4.026;2023-04-24T10:38:41;14.60;99.90
31133;DHT22;17779;50.942;4.026;2023-04-24T10:41:12;14.90;99.90
31133;DHT22;17779;50.942;4.026;2023-04-24T10:44:03;14.40;99.90
31133;DHT22;17779;50.942;4.026;2023-04-24T10:46:30;14.00;99.90
31133;DHT22;17779;50.942;4.026;2023-04-24T10:48:56;13.70;99.90
31133;DHT22;17779;50.942;4.026;2023-04-24T10:51:24;13.90;99.90
31133;DHT22;17779;50.942;4.026;2023-04-24T10:53:51;14.30;99.90
31133;DHT22;17779;50.942;4.026;2023-04-24T10:56:17;14.40;99.90
31133;DHT22;17779;50.942;4.026;2023-04-24T10:58:51;14.30;99.90
31133;DHT22;17779;50.942;4.026;2023-04-24T11:01:29;14.50;99.90
31133;DHT22;17779;50.942;4.026;2023-04-24T11:03:59;14.80;99.90
31133;DHT22;17779;50.942;4.026;2023-04-24T11:06:35;15.20;99.90
31133;DHT22;17779;50.942;4.026;2023-04-24T11:09:09;15.20;99.90
31133;DHT22;17779;50.942;4.026;2023-04-24T11:11:38;14.30;99.90
31133;DHT22;17779;50.942;4.026;2023-04-24T11:14:17;13.80;99.90
31133;DHT22;17779;50.942;4.026;2023-04-24T11:16:45;14.50;99.90
31133;DHT22;17779;50.942;4.026;2023-04-24T11:21:46;17.80;99.90
31133;DHT22;17779;50.942;4.026;2023-04-24T11:24:27;19.00;99.90
31133;DHT22;17779;50.942;4.026;2023-04-24T11:26:58;17.20;99.90
31133;DHT22;17779;50.942;4.026;2023-04-24T11:32:42;15.50;99.90
31133;DHT22;17779;50.942;4.026;2023-04-24T11:37:43;17.20;99.90
31133;DHT22;17779;50.942;4.026;2023-04-24T11:40:12;17.20;99.90
31133;DHT22;17779;50.942;4.026;2023-04-24T11:42:48;17.30;99.90
31133;DHT22;17779;50.942;4.026;2023-04-24T11:45:17;16.20;99.90
31133;DHT22;17779;50.942;4.026;2023-04-24T11:47:44;15.40;99.90
31133;DHT22;17779;50.942;4.026;2023-04-24T11:50:15;15.50;99.90
31133;DHT22;17779;50.942;4.026;2023-04-24T11:52:42;15.80;99.90
31133;DHT22;17779;50.942;4.026;2023-04-24T11:55:29;16.10;99.90
31133;DHT22;17779;50.942;4.026;2023-04-24T11:57:56;16.20;99.90
31133;DHT22;17779;50.942;4.026;2023-04-24T12:00:29;16.50;99.90
31133;DHT22;17779;50.942;4.026;2023-04-24T12:03:13;16.70;99.90
31133;DHT22;17779;50.942;4.026;2023-04-24T12:05:40;16.90;99.90
31133;DHT22;17779;50.942;4.026;2023-04-24T12:08:06;16.70;99.90
31133;DHT22;17779;50.942;4.026;2023-04-24T12:10:35;18.50;99.90
31133;DHT22;17779;50.942;4.026;2023-04-24T12:13:01;18.30;99.90
31133;DHT22;17779;50.942;4.026;2023-04-24T12:15:27;17.10;99.90
31133;DHT22;17779;50.942;4.026;2023-04-24T12:17:55;17.20;99.90
31133;DHT22;17779;50.942;4.026;2023-04-24T12:20:40;16.40;99.90
31133;DHT22;17779;50.942;4.026;2023-04-24T12:23:09;18.50;99.90
31133;DHT22;17779;50.942;4.026;2023-04-24T12:25:35;17.80;99.90
31133;DHT22;17779;50.942;4.026;2023-04-24T12:30:32;17.80;99.90
31133;DHT22;17779;50.942;4.026;2023-04-24T12:32:58;18.20;99.90
31133;DHT22;17779;50.942;4.026;2023-04-24T12:35:28;20.20;99.90
31133;DHT22;17779;50.942;4.026;2023-04-24T12:37:54;21.30;99.90
31133;DHT22;17779;50.942;4.026;2023-04-24T12:40:25;20.50;99.20
31133;DHT22;17779;50.942;4.026;2023-04-24T12:42:51;18.50;99.90
31133;DHT22;17779;50.942;4.026;2023-04-24T12:45:18;16.90;99.90
31133;DHT22;17779;50.942;4.026;2023-04-24T12:47:45;15.90;99.90
31133;DHT22;17779;50.942;4.026;2023-04-24T12:50:14;16.10;99.90
31133;DHT22;17779;50.942;4.026;2023-04-24T12:52:41;16.60;99.90
31133;DHT22;17779;50.942;4.026;2023-04-24T12:55:07;17.70;99.90
31133;DHT22;17779;50.942;4.026;2023-04-24T12:57:35;18.80;99.90
31133;DHT22;17779;50.942;4.026;2023-04-24T13:00:01;19.90;99.90
31133;DHT22;17779;50.942;4.026;2023-04-24T13:02:29;19.70;99.30
31133;DHT22;17779;50.942;4.026;2023-04-24T13:04:56;19.40;99.10
31133;DHT22;17779;50.942;4.026;2023-04-24T13:07:22;18.70;99.90
31133;DHT22;17779;50.942;4.026;2023-04-24T13:09:49;17.10;99.90
31133;DHT22;17779;50.942;4.026;2023-04-24T13:12:15;16.50;99.90
31133;DHT22;17779;50.942;4.026;2023-04-24T13:14:41;16.30;99.90
31133;DHT22;17779;50.942;4.026;2023-04-24T13:17:07;16.40;99.90
31133;DHT22;17779;50.942;4.026;2023-04-24T13:19:37;15.90;99.90
31133;DHT22;17779;50.942;4.026;2023-04-24T13:22:04;15.60;99.90
31133;DHT22;17779;50.942;4.026;2023-04-24T13:24:30;15.40;99.90
31133;DHT22;17779;50.942;4.026;2023-04-24T13:26:56;15.40;99.90
31133;DHT22;17779;50.942;4.026;2023-04-24T13:29:23;15.50;99.90
31133;DHT22;17779;50.942;4.026;2023-04-24T13:31:53;15.30;99.90
31133;DHT22;17779;50.942;4.026;2023-04-24T13:34:22;15.40;99.90
31133;DHT22;17779;50.942;4.026;2023-04-24T13:36:50;15.80;99.90
31133;DHT22;17779;50.942;4.026;2023-04-24T13:39:16;16.00;99.90
31133;DHT22;17779;50.942;4.026;2023-04-24T13:41:42;15.60;99.90
31133;DHT22;17779;50.942;4.026;2023-04-24T13:44:09;15.40;99.90
31133;DHT22;17779;50.942;4.026;2023-04-24T13:46:35;15.10;99.90
31133;DHT22;17779;50.942;4.026;2023-04-24T13:49:02;15.10;99.90
31133;DHT22;17779;50.942;4.026;2023-04-24T13:51:29;15.00;99.90
31133;DHT22;17779;50.942;4.026;2023-04-24T13:53:56;15.10;99.90
31133;DHT22;17779;50.942;4.026;2023-04-24T13:56:22;14.80;99.90
31133;DHT22;17779;50.942;4.026;2023-04-24T13:58:48;14.70;99.90
31133;DHT22;17779;50.942;4.026;2023-04-24T14:01:14;15.00;99.90
31133;DHT22;17779;50.942;4.026;2023-04-24T14:03:41;14.80;99.90
31133;DHT22;17779;50.942;4.026;2023-04-24T14:06:08;14.80;99.90
31133;DHT22;17779;50.942;4.026;2023-04-24T14:08:34;14.80;99.90
31133;DHT22;17779;50.942;4.026;2023-04-24T14:11:00;15.00;99.90
31133;DHT22;17779;50.942;4.026;2023-04-24T14:13:26;15.20;99.90
31133;DHT22;17779;50.942;4.026;2023-04-24T14:15:53;15.40;99.90
31133;DHT22;17779;50.942;4.026;2023-04-24T14:18:19;15.40;99.90
31133;DHT22;17779;50.942;4.026;2023-04-24T14:20:45;15.10;99.90
31133;DHT22;17779;50.942;4.026;2023-04-24T14:23:11;15.30;99.90
31133;DHT22;17779;50.942;4.026;2023-04-24T14:25:37;15.20;99.90
31133;DHT22;17779;50.942;4.026;2023-04-24T14:28:02;14.70;99.90
31133;DHT22;17779;50.942;4.026;2023-04-24T14:30:28;14.30;99.90
31133;DHT22;17779;50.942;4.026;2023-04-24T14:32:54;14.30;99.90
31133;DHT22;17779;50.942;4.026;2023-04-24T14:35:23;14.30;99.90
31133;DHT22;17779;50.942;4.026;2023-04-24T14:37:49;14.30;99.90
31133;DHT22;17779;50.942;4.026;2023-04-24T14:40:15;14.30;99.90
31133;DHT22;17779;50.942;4.026;2023-04-24T14:42:40;14.50;99.90
31133;DHT22;17779;50.942;4.026;2023-04-24T14:45:07;14.60;99.90
31133;DHT22;17779;50.942;4.026;2023-04-24T14:47:33;14.60;99.90
31133;DHT22;17779;50.942;4.026;2023-04-24T14:49:59;14.30;99.90
31133;DHT22;17779;50.942;4.026;2023-04-24T14:52:25;14.40;99.90
31133;DHT22;17779;50.942;4.026;2023-04-24T14:54:51;14.40;99.90
31133;DHT22;17779;50.942;4.026;2023-04-24T14:57:18;14.30;99.90
31133;DHT22;17779;50.942;4.026;2023-04-24T14:59:44;14.20;99.90
31133;DHT22;17779;50.942;4.026;2023-04-24T15:02:10;14.00;99.90
31133;DHT22;17779;50.942;4.026;2023-04-24T15:04:36;14.10;99.90
31133;DHT22;17779;50.942;4.026;2023-04-24T15:07:02;14.20;99.90
31133;DHT22;17779;50.942;4.026;2023-04-24T15:09:27;14.20;99.90
31133;DHT22;17779;50.942;4.026;2023-04-24T15:11:53;14.40;99.90
31133;DHT22;17779;50.942;4.026;2023-04-24T15:14:19;14.60;99.90
31133;DHT22;17779;50.942;4.026;2023-04-24T15:16:45;15.00;99.90
31133;DHT22;17779;50.942;4.026;2023-04-24T15:19:11;15.10;99.90
31133;DHT22;17779;50.942;4.026;2023-04-24T15:21:37;14.90;99.90
31133;DHT22;17779;50.942;4.026;2023-04-24T15:24:04;14.60;99.90
31133;DHT22;17779;50.942;4.026;2023-04-24T15:26:30;14.40;99.90
31133;DHT22;17779;50.942;4.026;2023-04-24T15:28:56;14.20;99.90
31133;DHT22;17779;50.942;4.026;2023-04-24T15:31:22;13.80;99.90
31133;DHT22;17779;50.942;4.026;2023-04-24T15:33:49;13.40;99.90
31133;DHT22;17779;50.942;4.026;2023-04-24T15:36:17;13.40;99.90
31133;DHT22;17779;50.942;4.026;2023-04-24T15:38:44;13.30;99.90
31133;DHT22;17779;50.942;4.026;2023-04-24T15:41:11;13.20;99.90
31133;DHT22;17779;50.942;4.026;2023-04-24T15:43:37;13.30;99.90
31133;DHT22;17779;50.942;4.026;2023-04-24T15:46:04;13.40;99.90